Airfield :
LOGIN :

Register | Disclaimer

   EN    FR    IT 

 










Legend :    VFR   Marginal VFR   IFR   Intensive IFR   Very Intensive IFR
Visi :
Ceiling :
>= 8 km
>= 3000ft
5 to 8 km
1000 to 3000 ft
1500m to 5 km
500 to 1000 ft
800 to 1500m
200 to 500 ft
< 800m
< 200 ft
Symbols :   Thunderstorms  Fog  Heavy snow  Heavy precipitations  Wind > 20 kt
SIGMETs :     Misc.  Thunderstorms  Icing  Turbulence  Mountain Waves  Volcanic Ashes







- Airport Elevation : 325 ft
- IATA code : POX
- Download approach charts


LFPT - Pontoise

CURRENT METAR :
  • 251200Z AUTO 04006KT 350V080 CAVOK 09/M02 Q1012

EXPIRED METARs :
  • 251130Z AUTO 01006KT 330V070 CAVOK 09/M03 Q1013
  • 251100Z AUTO 05007KT 350V110 CAVOK 08/M01 Q1013
  • 251030Z AUTO 04007KT 010V080 9999 FEW041 SCT210 08/M02 Q1013
  • 251000Z AUTO 35007KT 320V040 9999 SCT041 SCT100 08/M01 Q1013
  • 250930Z AUTO 02009KT 9999 FEW038 07/M01 Q1013

TAF N/A
ATIS : +33 1 30 30 52 08
No reported NOTAMs for that airfield.



MET'MAP, your aeronautical weather chart ! - Copyright ORBIFLY December 2007 - Disclaimer

ORBIFLY MET'MAP TEAM :

Programming & Development : Alexandra Zaïnal
Concept & Development : Baudouin d'Aumeries
Co-Development & Prog : Marc-Olivier Méhu
Technical & hardware support : Manuel Goepfert

Contact : metmap@orbifly.com




SOURCES & CREDITS :

   NOAA